createdAt,value
2023-04-20T00:00:10.430Z,22.15
2023-04-20T00:02:43.563Z,23.05
2023-04-20T00:05:12.770Z,16.55
2023-04-20T00:07:42.120Z,16.60
2023-04-20T00:10:11.352Z,15.70
2023-04-20T00:12:39.885Z,23.02
2023-04-20T00:15:09.341Z,19.75
2023-04-20T00:17:39.598Z,18.60
2023-04-20T00:20:10.969Z,21.15
2023-04-20T00:22:39.904Z,22.58
2023-04-20T00:25:09.295Z,21.15
2023-04-20T00:27:37.666Z,21.02
2023-04-20T00:30:08.929Z,19.85
2023-04-20T00:32:37.579Z,25.40
2023-04-20T00:35:06.292Z,21.65
2023-04-20T00:37:36.232Z,22.85
2023-04-20T00:40:05.371Z,26.90
2023-04-20T00:42:33.625Z,25.40
2023-04-20T00:45:02.080Z,26.00
2023-04-20T00:47:31.139Z,36.25
2023-04-20T00:49:59.300Z,30.58
2023-04-20T00:52:28.339Z,33.55
2023-04-20T00:55:01.156Z,29.80
2023-04-20T00:57:30.189Z,30.70
2023-04-20T00:59:58.690Z,34.40
2023-04-20T01:02:27.756Z,44.75
2023-04-20T01:04:56.598Z,26.55
2023-04-20T01:07:25.339Z,32.83
2023-04-20T01:09:53.878Z,38.33
2023-04-20T01:12:23.595Z,36.03
2023-04-20T01:14:51.803Z,32.58
2023-04-20T01:17:20.440Z,29.98
2023-04-20T01:19:49.386Z,32.50
2023-04-20T01:22:20.284Z,30.77
2023-04-20T01:24:48.973Z,33.72
2023-04-20T01:27:17.691Z,24.95
2023-04-20T01:29:46.506Z,23.05
2023-04-20T01:32:15.170Z,25.90
2023-04-20T01:34:43.494Z,24.77
2023-04-20T01:37:11.750Z,33.42
2023-04-20T01:39:42.136Z,26.58
2023-04-20T01:42:10.586Z,27.20
2023-04-20T01:44:40.002Z,26.20
2023-04-20T01:47:08.442Z,39.75
2023-04-20T01:49:36.692Z,28.50
2023-04-20T01:52:05.072Z,26.83
2023-04-20T01:54:33.675Z,29.73
2023-04-20T01:57:04.999Z,24.58
2023-04-20T01:59:33.390Z,24.27
2023-04-20T02:02:03.159Z,30.83
2023-04-20T02:04:34.135Z,24.77
2023-04-20T02:07:02.310Z,43.55
2023-04-20T02:09:30.647Z,46.60
2023-04-20T02:11:59.077Z,55.58
2023-04-20T02:14:28.540Z,34.70
2023-04-20T02:16:56.886Z,52.05
2023-04-20T02:19:24.984Z,56.70
2023-04-20T02:21:53.058Z,42.25
2023-04-20T02:24:21.168Z,67.65
2023-04-20T02:26:49.664Z,38.95
2023-04-20T02:29:18.375Z,35.72
2023-04-20T02:31:47.998Z,54.63
2023-04-20T02:34:18.175Z,44.40
2023-04-20T02:36:46.442Z,32.58
2023-04-20T02:39:14.770Z,44.92
2023-04-20T02:41:42.946Z,36.97
2023-04-20T02:44:11.535Z,72.20
2023-04-20T02:46:40.562Z,55.63
2023-04-20T02:49:11.142Z,46.25
2023-04-20T02:51:44.040Z,118.68
2023-04-20T02:54:12.642Z,54.72
2023-04-20T02:56:41.157Z,110.32
2023-04-20T02:59:11.730Z,93.88
2023-04-20T03:01:59.607Z,164.32
2023-04-20T03:04:31.355Z,123.90
2023-04-20T03:07:16.847Z,57.53
2023-04-20T03:09:45.235Z,198.80
2023-04-20T03:12:26.807Z,141.80
2023-04-20T03:15:08.826Z,80.05
2023-04-20T03:17:48.810Z,110.30
2023-04-20T03:20:18.829Z,195.00
2023-04-20T03:22:47.549Z,50.13
2023-04-20T03:25:16.493Z,194.40
2023-04-20T03:27:53.792Z,137.55
2023-04-20T03:30:22.793Z,193.93
2023-04-20T03:32:57.112Z,159.98
2023-04-20T03:35:27.168Z,71.55
2023-04-20T03:37:55.585Z,127.70
2023-04-20T03:40:23.976Z,109.80
2023-04-20T03:42:52.233Z,60.40
2023-04-20T03:45:20.436Z,66.22
2023-04-20T03:47:50.674Z,37.22
2023-04-20T03:50:19.251Z,85.07
2023-04-20T03:52:48.910Z,120.88
2023-04-20T03:55:17.618Z,83.00
2023-04-20T03:57:51.493Z,76.82
2023-04-20T04:00:20.583Z,55.47
2023-04-20T04:02:49.000Z,117.28
2023-04-20T04:05:26.692Z,106.97
2023-04-20T04:07:56.896Z,51.72
2023-04-20T04:10:25.160Z,95.22
2023-04-20T04:12:53.529Z,56.85
2023-04-20T04:15:21.925Z,64.90
2023-04-20T04:17:57.391Z,62.80
2023-04-20T04:20:26.222Z,56.97
2023-04-20T04:22:57.584Z,46.75
2023-04-20T04:25:39.005Z,38.55
2023-04-20T04:28:07.513Z,27.55
2023-04-20T04:30:39.111Z,47.55
2023-04-20T04:33:10.321Z,47.22
2023-04-20T04:35:41.759Z,35.60
2023-04-20T04:38:14.115Z,45.47
2023-04-20T04:40:46.187Z,41.33
2023-04-20T04:43:14.966Z,33.75
2023-04-20T04:45:50.425Z,40.10
2023-04-20T04:48:21.116Z,41.42
2023-04-20T04:50:49.384Z,46.13
2023-04-20T04:53:19.382Z,45.50
2023-04-20T04:55:48.853Z,52.65
2023-04-20T04:58:17.070Z,64.28
2023-04-20T05:00:45.351Z,41.78
2023-04-20T05:03:13.967Z,119.63
2023-04-20T05:05:42.597Z,72.97
2023-04-20T05:08:11.391Z,62.25
2023-04-20T05:10:41.106Z,39.85
2023-04-20T05:13:09.263Z,37.53
2023-04-20T05:15:37.676Z,37.10
2023-04-20T05:18:06.454Z,45.40
2023-04-20T05:20:34.752Z,45.63
2023-04-20T05:23:02.998Z,43.50
2023-04-20T05:25:32.717Z,40.92
2023-04-20T05:28:02.588Z,48.33
2023-04-20T05:30:31.572Z,51.92
2023-04-20T05:33:00.119Z,40.47
2023-04-20T05:35:28.765Z,38.05
2023-04-20T05:38:00.412Z,35.55
2023-04-20T05:40:28.627Z,42.13
2023-04-20T05:42:57.340Z,44.90
2023-04-20T05:45:27.411Z,35.38
2023-04-20T05:47:56.293Z,35.95
2023-04-20T05:50:25.099Z,43.40
2023-04-20T05:52:54.236Z,42.63
2023-04-20T05:55:23.119Z,38.17
2023-04-20T05:57:55.976Z,34.40
2023-04-20T06:00:27.604Z,42.42
2023-04-20T06:02:57.437Z,49.83
2023-04-20T06:05:26.089Z,37.92
2023-04-20T06:07:54.328Z,36.92
2023-04-20T06:10:22.859Z,42.30
2023-04-20T06:12:51.112Z,38.42
2023-04-20T06:15:19.467Z,38.05
2023-04-20T06:17:48.008Z,35.60
2023-04-20T06:20:17.951Z,38.45
2023-04-20T06:22:47.141Z,67.65
2023-04-20T06:25:15.941Z,45.97
2023-04-20T06:27:44.310Z,57.67
2023-04-20T06:30:13.641Z,44.15
2023-04-20T06:32:41.964Z,56.28
2023-04-20T06:35:10.712Z,46.28
2023-04-20T06:37:40.884Z,43.83
2023-04-20T06:40:10.336Z,49.67
2023-04-20T06:42:38.675Z,43.28
2023-04-20T06:45:08.164Z,34.88
2023-04-20T06:47:37.354Z,38.53
2023-04-20T06:50:10.062Z,41.30
2023-04-20T06:52:41.709Z,35.22
2023-04-20T06:55:11.074Z,35.42
2023-04-20T06:57:39.694Z,38.47
2023-04-20T07:00:12.903Z,34.35
2023-04-20T07:02:45.956Z,35.22
2023-04-20T07:05:14.618Z,33.40
2023-04-20T07:07:45.266Z,41.25
2023-04-20T07:10:15.857Z,29.40
2023-04-20T07:12:44.587Z,35.70
2023-04-20T07:15:13.810Z,28.38
2023-04-20T07:17:42.881Z,34.40
2023-04-20T07:20:12.769Z,39.47
2023-04-20T07:22:41.333Z,32.63
2023-04-20T07:25:12.116Z,28.95
2023-04-20T07:27:42.768Z,30.00
2023-04-20T07:30:12.651Z,30.42
2023-04-20T07:32:42.014Z,34.00
2023-04-20T07:35:11.374Z,33.10
2023-04-20T07:37:40.561Z,32.58
2023-04-20T07:40:12.324Z,33.17
2023-04-20T07:42:41.437Z,25.77
2023-04-20T07:45:11.198Z,33.13
2023-04-20T07:47:39.718Z,30.27
2023-04-20T07:50:09.271Z,31.52
2023-04-20T07:52:37.782Z,31.00
2023-04-20T07:55:08.355Z,32.38
2023-04-20T07:57:38.143Z,30.40
2023-04-20T08:00:08.986Z,32.50
2023-04-20T08:02:43.370Z,34.72
2023-04-20T08:05:12.204Z,30.65
2023-04-20T08:07:41.250Z,30.95
2023-04-20T08:10:10.784Z,30.65
2023-04-20T08:12:40.788Z,27.95
2023-04-20T08:15:11.081Z,33.00
2023-04-20T08:17:39.455Z,34.25
2023-04-20T08:20:10.712Z,31.10
2023-04-20T08:22:40.098Z,39.28
2023-04-20T08:25:08.999Z,33.20
2023-04-20T08:27:38.055Z,30.90
2023-04-20T08:30:10.704Z,40.53
2023-04-20T08:32:40.162Z,37.15
2023-04-20T08:35:09.397Z,45.20
2023-04-20T08:37:39.023Z,35.92
2023-04-20T08:40:09.193Z,31.08
2023-04-20T08:42:37.449Z,35.55
2023-04-20T08:45:09.546Z,30.50
2023-04-20T08:47:38.674Z,34.92
2023-04-20T08:50:09.648Z,30.80
2023-04-20T08:52:39.757Z,36.25
2023-04-20T08:55:08.948Z,46.95
2023-04-20T08:57:37.171Z,35.90
2023-04-20T09:00:13.554Z,40.17
2023-04-20T09:02:52.593Z,35.97
2023-04-20T09:05:27.720Z,37.45
2023-04-20T09:07:57.969Z,37.22
2023-04-20T09:10:27.728Z,46.08
2023-04-20T09:12:56.560Z,38.55
2023-04-20T09:15:30.879Z,37.30
2023-04-20T09:17:59.961Z,38.22
2023-04-20T09:20:31.576Z,40.67
2023-04-20T09:23:12.410Z,33.88
2023-04-20T09:25:42.739Z,37.90
2023-04-20T09:28:11.537Z,36.63
2023-04-20T09:30:43.046Z,36.90
2023-04-20T09:33:14.393Z,47.78
2023-04-20T09:35:44.365Z,43.67
2023-04-20T09:38:17.563Z,41.42
2023-04-20T09:40:46.088Z,42.47
2023-04-20T09:43:19.945Z,36.45
2023-04-20T09:45:50.556Z,41.38
2023-04-20T09:48:21.148Z,44.58
2023-04-20T09:50:51.677Z,37.90
2023-04-20T09:53:21.181Z,41.65
2023-04-20T09:55:51.364Z,35.97
2023-04-20T09:58:21.185Z,40.85
2023-04-20T10:00:51.461Z,38.80
2023-04-20T10:03:21.897Z,43.80
2023-04-20T10:05:52.960Z,40.05
2023-04-20T10:08:24.509Z,43.15
2023-04-20T10:10:53.386Z,42.42
2023-04-20T10:13:23.647Z,40.78
2023-04-20T10:15:55.945Z,42.88
2023-04-20T10:18:25.894Z,37.47
2023-04-20T10:21:06.641Z,46.25
2023-04-20T10:23:36.418Z,43.70
2023-04-20T10:26:05.460Z,40.58
2023-04-20T10:28:40.959Z,43.45
2023-04-20T10:31:13.771Z,43.38
2023-04-20T10:33:53.417Z,40.97
2023-04-20T10:36:30.029Z,40.80
2023-04-20T10:38:58.506Z,41.50
2023-04-20T10:41:27.310Z,44.45
2023-04-20T10:43:55.707Z,45.25
2023-04-20T10:46:26.509Z,37.30
2023-04-20T10:48:56.550Z,38.53
2023-04-20T10:51:26.249Z,33.65
2023-04-20T10:54:02.413Z,38.20
2023-04-20T10:56:38.351Z,38.08
2023-04-20T10:59:11.426Z,44.88
2023-04-20T11:01:42.057Z,40.72
2023-04-20T11:04:11.686Z,43.78
2023-04-20T11:06:41.222Z,37.95
2023-04-20T11:09:21.715Z,31.15
2023-04-20T11:12:01.101Z,41.25
2023-04-20T11:14:30.555Z,32.78
2023-04-20T11:17:00.840Z,37.15
2023-04-20T11:19:31.690Z,33.83
2023-04-20T11:22:01.162Z,33.83
2023-04-20T11:24:31.806Z,39.17
2023-04-20T11:27:00.121Z,34.65
2023-04-20T11:29:30.951Z,35.60
2023-04-20T11:32:01.580Z,33.33
2023-04-20T11:34:30.409Z,35.17
2023-04-20T11:37:04.419Z,34.70
2023-04-20T11:39:33.970Z,32.58
2023-04-20T11:42:02.197Z,41.13
2023-04-20T11:44:30.816Z,30.33
2023-04-20T11:47:01.104Z,35.25
2023-04-20T11:49:31.081Z,33.05
2023-04-20T11:51:59.129Z,34.40
2023-04-20T11:54:29.794Z,31.35
2023-04-20T11:56:59.096Z,31.67
2023-04-20T11:59:27.572Z,29.50
2023-04-20T12:01:55.786Z,30.52
2023-04-20T12:04:25.984Z,33.38
2023-04-20T12:06:54.357Z,32.50
2023-04-20T12:09:22.971Z,29.27
2023-04-20T12:11:51.783Z,29.02
2023-04-20T12:14:20.145Z,30.92
2023-04-20T12:16:48.373Z,28.48
2023-04-20T12:19:17.433Z,30.95
2023-04-20T12:21:48.142Z,30.15
2023-04-20T12:24:16.362Z,31.08
2023-04-20T12:26:44.804Z,25.35
2023-04-20T12:29:13.098Z,28.58
2023-04-20T12:31:41.876Z,31.40
2023-04-20T12:34:10.753Z,24.50
2023-04-20T12:36:39.400Z,26.17
2023-04-20T12:39:12.074Z,31.20
2023-04-20T12:41:42.449Z,28.27
2023-04-20T12:44:13.309Z,29.70
2023-04-20T12:46:41.931Z,25.10
2023-04-20T12:49:10.838Z,28.98
2023-04-20T12:51:39.071Z,27.58
2023-04-20T12:54:08.651Z,29.38
2023-04-20T12:56:37.820Z,27.95
2023-04-20T12:59:05.893Z,22.02
2023-04-20T13:01:34.514Z,27.17
2023-04-20T13:04:03.069Z,31.33
2023-04-20T13:06:32.734Z,22.58
2023-04-20T13:09:01.862Z,27.10
2023-04-20T13:11:32.571Z,28.33
2023-04-20T13:14:00.939Z,24.70
2023-04-20T13:16:29.481Z,23.58
2023-04-20T13:18:57.828Z,24.33
2023-04-20T13:21:26.153Z,19.35
2023-04-20T13:23:56.835Z,20.85
2023-04-20T13:26:25.522Z,22.33
2023-04-20T13:28:57.525Z,21.60
2023-04-20T13:31:28.914Z,22.17
2023-04-20T13:33:57.934Z,20.38
2023-04-20T13:36:28.353Z,20.35
2023-04-20T13:38:57.802Z,23.95
2023-04-20T13:41:26.107Z,16.80
2023-04-20T13:43:55.746Z,18.35
2023-04-20T13:46:25.153Z,15.80
2023-04-20T13:48:53.445Z,24.23
2023-04-20T13:51:21.662Z,16.23
2023-04-20T13:53:49.894Z,19.77
2023-04-20T13:56:18.645Z,21.38
2023-04-20T13:58:46.930Z,18.95
2023-04-20T14:01:17.553Z,16.98
2023-04-20T14:03:46.000Z,16.58
2023-04-20T14:06:14.241Z,17.25
2023-04-20T14:08:42.410Z,15.23
2023-04-20T14:11:10.915Z,16.85
2023-04-20T14:13:39.908Z,12.05
2023-04-20T14:16:10.581Z,14.00
2023-04-20T14:18:40.382Z,12.98
2023-04-20T14:21:10.263Z,13.88
2023-04-20T14:23:38.782Z,15.55
2023-04-20T14:26:07.416Z,13.00
2023-04-20T14:28:35.991Z,17.50
2023-04-20T14:31:04.575Z,11.68
2023-04-20T14:33:33.030Z,21.08
2023-04-20T14:36:03.023Z,16.45
2023-04-20T14:38:31.476Z,15.48
2023-04-20T14:41:00.720Z,13.80
2023-04-20T14:43:28.822Z,18.02
2023-04-20T14:45:58.876Z,17.48
2023-04-20T14:48:28.623Z,22.13
2023-04-20T14:50:57.325Z,20.20
2023-04-20T14:53:27.065Z,22.45
2023-04-20T14:55:56.221Z,21.70
2023-04-20T14:58:24.805Z,26.45
2023-04-20T15:00:54.260Z,26.15
2023-04-20T15:03:23.411Z,21.52
2023-04-20T15:05:52.746Z,21.83
2023-04-20T15:08:21.056Z,19.98
2023-04-20T15:10:58.015Z,19.45
2023-04-20T15:13:27.186Z,22.50
2023-04-20T15:15:55.853Z,20.58
2023-04-20T15:18:23.899Z,25.00
2023-04-20T15:20:52.619Z,20.80
2023-04-20T15:23:21.063Z,25.23
2023-04-20T15:25:50.819Z,20.42
2023-04-20T15:28:19.104Z,20.60
2023-04-20T15:30:47.582Z,19.75
2023-04-20T15:33:15.857Z,21.73
2023-04-20T15:35:44.018Z,19.67
2023-04-20T15:38:12.795Z,18.45
2023-04-20T15:40:41.778Z,21.48
2023-04-20T15:43:11.415Z,24.77
2023-04-20T15:45:40.811Z,15.45
2023-04-20T15:48:10.140Z,16.73
2023-04-20T15:50:38.296Z,17.25
2023-04-20T15:53:07.460Z,23.10
2023-04-20T15:55:39.349Z,19.15
2023-04-20T15:58:08.081Z,17.92
2023-04-20T16:00:38.228Z,17.05
2023-04-20T16:03:07.097Z,14.48
2023-04-20T16:05:54.168Z,17.80
2023-04-20T16:08:41.564Z,17.23
2023-04-20T16:11:10.196Z,16.70
2023-04-20T16:13:38.561Z,16.27
2023-04-20T16:16:09.178Z,18.13
2023-04-20T16:18:37.617Z,19.08
2023-04-20T16:21:06.398Z,15.20
2023-04-20T16:23:34.835Z,17.48
2023-04-20T16:26:03.106Z,16.13
2023-04-20T16:28:31.652Z,14.70
2023-04-20T16:31:00.445Z,16.45
2023-04-20T16:33:32.122Z,19.33
2023-04-20T16:36:01.972Z,17.83
2023-04-20T16:38:30.440Z,16.67
2023-04-20T16:40:59.234Z,25.95
2023-04-20T16:43:27.251Z,22.08
2023-04-20T16:45:55.406Z,21.13
2023-04-20T16:48:23.695Z,20.10
2023-04-20T16:50:53.792Z,20.83
2023-04-20T16:53:22.086Z,20.20
2023-04-20T16:55:50.147Z,23.50
2023-04-20T16:58:18.326Z,20.38
2023-04-20T17:00:46.609Z,19.00
2023-04-20T17:03:15.408Z,22.45
2023-04-20T17:05:44.817Z,25.60
2023-04-20T17:08:14.716Z,21.60
2023-04-20T17:10:42.914Z,18.67
2023-04-20T17:13:11.425Z,19.17
2023-04-20T17:15:40.196Z,18.80
2023-04-20T17:18:16.888Z,18.58
2023-04-20T17:20:46.118Z,22.23
2023-04-20T17:23:18.272Z,16.20
2023-04-20T17:25:47.614Z,21.73
2023-04-20T17:28:16.102Z,17.88
2023-04-20T17:30:44.323Z,21.70
2023-04-20T17:33:13.654Z,22.38
2023-04-20T17:35:42.315Z,24.45
2023-04-20T17:38:10.666Z,20.50
2023-04-20T17:40:40.234Z,18.23
2023-04-20T17:43:09.024Z,21.90
2023-04-20T17:45:38.129Z,21.55
2023-04-20T17:48:07.031Z,24.30
2023-04-20T17:50:36.032Z,18.55
2023-04-20T17:53:06.983Z,23.45
2023-04-20T17:55:36.275Z,23.10
2023-04-20T17:58:05.964Z,24.88
2023-04-20T18:00:34.176Z,26.73
2023-04-20T18:03:02.515Z,20.25
2023-04-20T18:05:31.115Z,23.17
2023-04-20T18:07:59.344Z,23.52
2023-04-20T18:10:27.658Z,28.58
2023-04-20T18:13:16.638Z,21.48
2023-04-20T18:15:45.204Z,30.20
2023-04-20T18:18:13.350Z,22.00
2023-04-20T18:21:10.014Z,31.08
2023-04-20T18:23:38.720Z,24.13
2023-04-20T18:26:07.273Z,26.10
2023-04-20T18:28:37.495Z,29.20
2023-04-20T18:31:05.799Z,23.08
2023-04-20T18:33:34.252Z,26.10
2023-04-20T18:36:02.445Z,26.90
2023-04-20T18:38:30.742Z,25.35
2023-04-20T18:41:00.021Z,26.95
2023-04-20T18:43:28.782Z,23.70
2023-04-20T18:45:58.349Z,25.73
2023-04-20T18:48:27.598Z,28.85
2023-04-20T18:50:55.752Z,28.63
2023-04-20T18:53:24.044Z,35.35
2023-04-20T18:55:53.829Z,27.67
2023-04-20T18:58:22.034Z,30.42
2023-04-20T19:00:51.307Z,25.48
2023-04-20T19:03:21.296Z,29.30
2023-04-20T19:05:49.627Z,24.00
2023-04-20T19:08:18.593Z,28.20
2023-04-20T19:10:46.738Z,34.33
2023-04-20T19:13:17.652Z,26.20
2023-04-20T19:15:46.203Z,27.83
2023-04-20T19:18:16.147Z,28.17
2023-04-20T19:20:46.114Z,26.20
2023-04-20T19:23:14.088Z,26.80
2023-04-20T19:25:42.568Z,36.08
2023-04-20T19:28:12.195Z,30.40
2023-04-20T19:30:40.776Z,32.80
2023-04-20T19:33:09.154Z,27.58
2023-04-20T19:35:37.482Z,31.75
2023-04-20T19:38:07.704Z,28.10
2023-04-20T19:40:36.429Z,31.98
2023-04-20T19:43:06.511Z,31.70
2023-04-20T19:45:34.676Z,29.10
2023-04-20T19:48:03.291Z,31.23
2023-04-20T19:50:32.349Z,33.33
2023-04-20T19:53:00.982Z,35.42
2023-04-20T19:55:30.672Z,31.75
2023-04-20T19:57:58.844Z,29.30
2023-04-20T20:00:27.213Z,35.08
2023-04-20T20:02:55.541Z,33.97
2023-04-20T20:05:24.486Z,33.15
2023-04-20T20:07:53.154Z,38.25
2023-04-20T20:10:21.462Z,28.00
2023-04-20T20:12:51.440Z,31.55
2023-04-20T20:15:20.638Z,32.13
2023-04-20T20:17:49.292Z,36.13
2023-04-20T20:20:17.714Z,39.03
2023-04-20T20:22:48.396Z,34.72
2023-04-20T20:25:18.273Z,33.58
2023-04-20T20:27:46.653Z,37.88
2023-04-20T20:30:17.591Z,36.33
2023-04-20T20:32:46.580Z,39.47
2023-04-20T20:35:15.143Z,36.22
2023-04-20T20:37:45.587Z,36.22
2023-04-20T20:40:15.222Z,34.95
2023-04-20T20:42:45.179Z,33.53
2023-04-20T20:45:14.076Z,39.00
2023-04-20T20:47:44.532Z,35.83
2023-04-20T20:50:14.292Z,37.72
2023-04-20T20:52:42.812Z,45.00
2023-04-20T20:55:11.508Z,39.75
2023-04-20T20:57:40.101Z,39.47
2023-04-20T21:00:11.411Z,38.10
2023-04-20T21:02:40.350Z,34.53
2023-04-20T21:05:10.822Z,35.65
2023-04-20T21:07:39.589Z,38.70
2023-04-20T21:10:09.782Z,32.92
2023-04-20T21:12:38.096Z,40.20
2023-04-20T21:15:55.972Z,38.83
